Airfield :
LOGIN :

Register | Disclaimer

   EN    FR    IT 

 










Legend :    VFR   Marginal VFR   IFR   Intensive IFR   Very Intensive IFR
Visi :
Ceiling :
>= 8 km
>= 3000ft
5 to 8 km
1000 to 3000 ft
1500m to 5 km
500 to 1000 ft
800 to 1500m
200 to 500 ft
< 800m
< 200 ft
Symbols :   Thunderstorms  Fog  Heavy snow  Heavy precipitations  Wind > 20 kt
SIGMETs :     Misc.  Thunderstorms  Icing  Turbulence  Mountain Waves  Volcanic Ashes






- Airport Elevation : 16 ft
- IATA code : SDR


LEXJ - Santander Cantabria

CURRENT METAR :
  • 241500Z 12005KT 090V170 CAVOK 23/19 Q1013

EXPIRED METARs :
  • 241430Z 14005KT 110V170 9999 FEW048 22/19 Q1013
  • 241400Z VRB02KT 9999 FEW040 21/19 Q1014
  • 241330Z VRB02KT 9999 -RA FEW045 20/18 Q1015
  • 241300Z 06003KT 360V120 9999 -RA FEW075 20/18 Q1015
  • 241230Z VRB02KT 9999 -RA SCT040 BKN077 20/18 Q1015 RERA
  • 241222Z VRB02KT 8000 -RA SCT040 BKN077 20/18 Q1015 RERA
  • 241210Z VRB01KT 6000 RA SCT035 BKN077 20/18 Q1016

TAF TAF LEXJ
Valid from the 24 at 15:00 until the 25 at 15:00 UTC


241400Z 2415/2515 VRB04KT 9999 FEW040 TX27/2513Z TN18/2501Z
PROB30
TEMPO 2415/2418 3000 RA SHRA SCT030TCU
PROB40
TEMPO 2418/2503 VRB15G25KT 3000 RA SHRA SCT030TCU
PROB30
TEMPO 2418/2503 TS SHRA FEW030CB SCT035TCU
BECMG 2502/2506 22010KT
TEMPO 2512/2515 22015G25KT



MET'MAP, your aeronautical weather chart ! - Copyright ORBIFLY December 2007 - Disclaimer

ORBIFLY MET'MAP TEAM :

Programming & Development : Alexandra Zaïnal
Concept & original design : Baudouin d'Aumeries
Assistance for programming : Marc-Olivier Méhu
Technical & hardware support : Manuel Goepfert

Contact : metmap@orbifly.com




SOURCES & CREDITS :

   NOAA